createdAt,value
2018-12-04T00:01:04.681Z,0.70
2018-12-04T00:03:38.843Z,0.43
2018-12-04T00:06:12.852Z,0.60
2018-12-04T00:08:46.762Z,0.57
2018-12-04T00:11:20.762Z,0.60
2018-12-04T00:13:54.731Z,0.60
2018-12-04T00:16:28.692Z,0.60
2018-12-04T00:19:02.681Z,0.70
2018-12-04T00:21:36.629Z,0.60
2018-12-04T00:24:10.548Z,0.50
2018-12-04T00:26:44.554Z,0.60
2018-12-04T00:29:18.631Z,0.73
2018-12-04T00:31:52.594Z,0.70
2018-12-04T00:34:26.539Z,1.10
2018-12-04T00:37:00.620Z,0.70
2018-12-04T00:39:34.552Z,0.50
2018-12-04T00:42:08.571Z,0.77
2018-12-04T00:44:42.437Z,0.70
2018-12-04T00:47:16.559Z,0.60
2018-12-04T00:49:50.652Z,0.60
2018-12-04T00:52:24.589Z,0.80
2018-12-04T00:54:58.475Z,0.60
2018-12-04T00:57:32.427Z,0.70
2018-12-04T01:00:08.349Z,0.60
2018-12-04T01:02:42.279Z,0.70
2018-12-04T01:05:16.370Z,1.13
2018-12-04T01:07:50.281Z,0.73
2018-12-04T01:10:24.235Z,1.27
2018-12-04T01:12:58.099Z,0.50
2018-12-04T01:15:32.167Z,0.73
2018-12-04T01:18:06.147Z,0.60
2018-12-04T01:20:40.211Z,0.90
2018-12-04T01:23:14.208Z,0.60
2018-12-04T01:25:48.256Z,0.60
2018-12-04T01:28:22.336Z,0.70
2018-12-04T01:30:56.368Z,0.83
2018-12-04T01:33:30.345Z,0.70
2018-12-04T01:36:04.331Z,1.00
2018-12-04T01:38:38.320Z,1.60
2018-12-04T01:41:12.396Z,1.30
2018-12-04T01:43:46.295Z,1.33
2018-12-04T01:46:20.313Z,0.90
2018-12-04T01:48:54.256Z,0.77
2018-12-04T01:51:28.264Z,0.90
2018-12-04T01:54:02.196Z,0.80
2018-12-04T01:56:36.072Z,0.60
2018-12-04T01:59:10.119Z,1.10
2018-12-04T02:01:44.123Z,0.63
2018-12-04T02:04:18.172Z,1.10
2018-12-04T02:06:52.019Z,0.70
2018-12-04T02:09:26.028Z,1.03
2018-12-04T02:12:00.045Z,0.90
2018-12-04T02:14:34.115Z,0.77
2018-12-04T02:17:08.168Z,0.70
2018-12-04T02:19:42.357Z,1.37
2018-12-04T02:22:16.203Z,1.07
2018-12-04T02:24:50.175Z,0.80
2018-12-04T02:27:24.196Z,0.80
2018-12-04T02:29:58.076Z,0.97
2018-12-04T02:32:31.916Z,1.00
2018-12-04T02:35:05.908Z,1.47
2018-12-04T02:37:39.906Z,0.73
2018-12-04T02:40:13.839Z,1.63
2018-12-04T02:42:47.924Z,0.50
2018-12-04T02:45:21.968Z,0.70
2018-12-04T02:47:55.842Z,0.63
2018-12-04T02:50:29.868Z,0.60
2018-12-04T02:53:03.880Z,0.53
2018-12-04T02:55:37.732Z,0.60
2018-12-04T02:58:11.601Z,0.60
2018-12-04T03:00:52.313Z,0.83
2018-12-04T03:03:26.256Z,0.80
2018-12-04T03:06:00.265Z,0.70
2018-12-04T03:08:34.115Z,0.83
2018-12-04T03:11:08.144Z,0.50
2018-12-04T03:13:41.947Z,0.83
2018-12-04T03:16:15.874Z,0.67
2018-12-04T03:18:49.834Z,0.93
2018-12-04T03:21:23.783Z,0.80
2018-12-04T03:23:57.775Z,1.00
2018-12-04T03:26:31.759Z,0.83
2018-12-04T03:29:05.591Z,0.70
2018-12-04T03:31:39.486Z,0.60
2018-12-04T03:34:13.359Z,0.60
2018-12-04T03:36:47.181Z,0.70
2018-12-04T03:39:21.015Z,0.87
2018-12-04T03:41:54.975Z,0.73
2018-12-04T03:44:28.943Z,0.80
2018-12-04T03:47:02.955Z,0.80
2018-12-04T03:49:36.910Z,0.70
2018-12-04T03:52:10.925Z,1.30
2018-12-04T03:54:45.012Z,0.70
2018-12-04T03:57:18.890Z,2.00
2018-12-04T03:59:52.880Z,0.70
2018-12-04T04:02:26.883Z,0.70
2018-12-04T04:05:00.968Z,0.93
2018-12-04T04:07:35.100Z,0.70
2018-12-04T04:10:08.995Z,0.73
2018-12-04T04:12:42.842Z,0.63
2018-12-04T04:15:17.044Z,0.77
2018-12-04T04:17:51.047Z,0.70
2018-12-04T04:20:24.919Z,0.60
2018-12-04T04:22:58.913Z,0.70
2018-12-04T04:25:32.928Z,0.80
2018-12-04T04:28:06.808Z,0.70
2018-12-04T04:30:40.821Z,0.90
2018-12-04T04:33:14.751Z,0.53
2018-12-04T04:35:48.837Z,0.50
2018-12-04T04:38:22.741Z,0.80
2018-12-04T04:40:56.862Z,0.60
2018-12-04T04:43:30.908Z,0.60
2018-12-04T04:46:05.032Z,0.80
2018-12-04T04:48:38.887Z,0.87
2018-12-04T04:51:12.975Z,0.73
2018-12-04T04:53:46.963Z,0.60
2018-12-04T04:56:20.887Z,0.63
2018-12-04T04:58:54.927Z,0.70
2018-12-04T05:01:28.904Z,0.70
2018-12-04T05:04:02.884Z,0.70
2018-12-04T05:06:36.948Z,0.77
2018-12-04T05:09:10.825Z,0.60
2018-12-04T05:11:44.671Z,0.50
2018-12-04T05:14:18.593Z,0.70
2018-12-04T05:16:52.418Z,0.90
2018-12-04T05:19:26.712Z,0.70
2018-12-04T05:22:00.916Z,1.00
2018-12-04T05:24:35.275Z,0.60
2018-12-04T05:27:09.287Z,0.80
2018-12-04T05:29:43.500Z,1.07
2018-12-04T05:32:17.413Z,0.93
2018-12-04T05:34:51.306Z,0.70
2018-12-04T05:37:25.359Z,0.90
2018-12-04T05:39:59.543Z,0.90
2018-12-04T05:42:33.638Z,0.80
2018-12-04T05:45:07.826Z,0.80
2018-12-04T05:47:41.964Z,1.67
2018-12-04T05:50:15.875Z,0.87
2018-12-04T05:53:54.791Z,0.90
2018-12-04T05:56:28.644Z,0.53
2018-12-04T05:59:02.668Z,1.23
2018-12-04T06:01:36.749Z,0.80
2018-12-04T06:04:10.689Z,0.77
2018-12-04T06:06:44.748Z,1.03
2018-12-04T06:09:18.624Z,0.80
2018-12-04T06:11:52.623Z,0.70
2018-12-04T06:14:26.623Z,1.17
2018-12-04T06:17:00.749Z,0.83
2018-12-04T06:19:34.757Z,1.23
2018-12-04T06:22:08.711Z,1.27
2018-12-04T06:24:42.849Z,1.10
2018-12-04T06:27:16.892Z,1.30
2018-12-04T06:29:51.061Z,0.83
2018-12-04T06:32:25.260Z,0.87
2018-12-04T06:34:59.234Z,0.93
2018-12-04T06:37:33.300Z,0.97
2018-12-04T06:40:07.583Z,1.20
2018-12-04T06:42:41.801Z,1.10
2018-12-04T06:45:15.809Z,1.40
2018-12-04T06:47:49.907Z,0.83
2018-12-04T06:50:24.585Z,1.80
2018-12-04T06:52:58.860Z,1.00
2018-12-04T06:55:33.141Z,1.30
2018-12-04T06:58:07.186Z,1.23
2018-12-04T07:00:41.088Z,1.47
2018-12-04T07:18:28.755Z,0.97
2018-12-04T07:21:02.886Z,1.10
2018-12-04T07:23:37.259Z,1.43
2018-12-04T07:26:11.484Z,1.03
2018-12-04T07:28:45.686Z,1.70
2018-12-04T07:31:19.883Z,1.23
2018-12-04T07:33:57.116Z,0.97
2018-12-04T07:36:31.329Z,1.30
2018-12-04T07:39:07.316Z,1.37
2018-12-04T07:41:41.812Z,1.23
2018-12-04T07:44:16.194Z,0.90
2018-12-04T07:46:51.277Z,1.57
2018-12-04T07:49:25.620Z,1.20
2018-12-04T07:51:59.957Z,0.90
2018-12-04T07:54:36.431Z,0.97
2018-12-04T07:57:10.668Z,2.03
2018-12-04T07:59:44.607Z,2.00
2018-12-04T08:02:18.804Z,0.80
2018-12-04T08:04:55.087Z,0.70
2018-12-04T08:07:29.206Z,1.57
2018-12-04T08:10:03.846Z,2.60
2018-12-04T08:12:37.918Z,2.40
2018-12-04T08:15:12.027Z,1.20
2018-12-04T08:17:46.055Z,1.30
2018-12-04T08:20:20.068Z,1.13
2018-12-04T08:22:54.120Z,0.97
2018-12-04T08:25:28.454Z,1.10
2018-12-04T08:28:02.772Z,1.17
2018-12-04T08:30:37.110Z,1.30
2018-12-04T08:33:11.173Z,1.07
2018-12-04T08:35:45.245Z,1.30
2018-12-04T08:38:19.443Z,0.90
2018-12-04T08:40:54.257Z,1.20
2018-12-04T08:43:31.051Z,1.33
2018-12-04T08:46:05.495Z,1.27
2018-12-04T08:51:21.495Z,1.10
2018-12-04T08:54:02.438Z,0.93
2018-12-04T08:56:39.661Z,1.00
2018-12-04T09:01:59.789Z,1.20
2018-12-04T09:04:34.549Z,2.23
2018-12-04T09:07:14.856Z,1.60
2018-12-04T09:09:49.598Z,1.23
2018-12-04T09:12:27.401Z,1.30
2018-12-04T09:15:02.241Z,1.17
2018-12-04T09:17:36.263Z,1.60
2018-12-04T09:20:10.419Z,1.83
2018-12-04T09:22:44.943Z,1.57
2018-12-04T09:25:24.160Z,0.90
2018-12-04T09:28:03.657Z,1.53
2018-12-04T09:33:19.921Z,1.30
2018-12-04T09:35:54.411Z,1.30
2018-12-04T09:41:16.453Z,1.50
2018-12-04T09:43:51.433Z,1.57
2018-12-04T09:46:32.795Z,1.00
2018-12-04T09:49:13.774Z,1.43
2018-12-04T09:51:48.335Z,1.50
2018-12-04T09:54:30.936Z,1.67
2018-12-04T09:59:57.828Z,1.43
2018-12-04T10:10:59.672Z,1.30
2018-12-04T10:13:39.465Z,1.03
2018-12-04T10:21:58.078Z,1.67
2018-12-04T10:30:15.810Z,1.67
2018-12-04T12:22:02.460Z,1.57
2018-12-04T12:24:37.700Z,1.93
2018-12-04T12:27:13.805Z,4.27
2018-12-04T12:29:54.606Z,1.10
2018-12-04T12:32:29.225Z,1.30
2018-12-04T12:35:05.213Z,1.73
2018-12-04T12:37:41.123Z,1.57
2018-12-04T12:40:16.273Z,1.20
2018-12-04T12:42:51.171Z,1.80
2018-12-04T12:45:25.407Z,1.40
2018-12-04T12:48:00.086Z,1.10
2018-12-04T12:50:34.663Z,1.40
2018-12-04T12:53:09.413Z,1.17
2018-12-04T12:58:33.401Z,1.37
2018-12-04T13:01:10.823Z,1.10
2018-12-04T13:03:45.319Z,1.30
2018-12-04T13:06:20.279Z,1.47
2018-12-04T13:08:57.736Z,0.93
2018-12-04T13:14:17.072Z,1.63
2018-12-04T13:16:52.931Z,1.23
2018-12-04T13:19:31.694Z,1.33
2018-12-04T13:22:06.549Z,1.20
2018-12-04T13:24:54.341Z,1.50
2018-12-04T13:27:29.867Z,1.63
2018-12-04T13:30:13.773Z,1.63
2018-12-04T13:32:48.258Z,1.60
2018-12-04T13:35:27.201Z,1.30
2018-12-04T13:38:01.378Z,1.30
2018-12-04T13:40:38.321Z,0.97
2018-12-04T13:43:13.082Z,1.40
2018-12-04T13:45:47.457Z,1.37
2018-12-04T13:48:21.571Z,1.50
2018-12-04T13:51:04.967Z,1.87
2018-12-04T13:53:39.797Z,1.70
2018-12-04T13:56:14.292Z,2.03
2018-12-04T13:58:49.592Z,1.37
2018-12-04T14:01:24.666Z,1.77
2018-12-04T14:03:59.715Z,12.60
2018-12-04T14:06:34.480Z,10.50
2018-12-04T14:09:19.692Z,7.37
2018-12-04T14:11:59.134Z,5.60
2018-12-04T14:17:13.822Z,10.23
2018-12-04T14:19:49.545Z,18.37
2018-12-04T14:22:25.788Z,13.13
2018-12-04T14:25:00.236Z,6.17
2018-12-04T14:27:37.143Z,3.53
2018-12-04T14:30:14.419Z,10.77
2018-12-04T14:33:00.580Z,9.87
2018-12-04T14:38:25.775Z,4.43
2018-12-04T14:41:11.491Z,11.60
2018-12-04T14:43:47.893Z,5.00
2018-12-04T14:46:23.882Z,4.67
2018-12-04T14:48:59.499Z,2.67
2018-12-04T14:54:14.775Z,2.43
2018-12-04T14:56:51.324Z,2.60
2018-12-04T14:59:26.518Z,2.60
2018-12-04T15:02:04.625Z,2.30
2018-12-04T15:10:39.276Z,3.10
2018-12-04T15:13:18.366Z,2.83
2018-12-04T15:16:01.216Z,3.13
2018-12-04T19:27:54.039Z,2.07
2018-12-04T19:30:28.505Z,2.50
2018-12-04T19:33:03.015Z,2.90
2018-12-04T19:35:37.604Z,1.90
2018-12-04T19:38:20.693Z,2.70
2018-12-04T19:40:55.115Z,2.60
2018-12-04T19:43:29.338Z,2.63
2018-12-04T19:46:03.476Z,3.10
2018-12-04T19:48:38.577Z,2.70
2018-12-04T19:51:13.116Z,3.47
2018-12-04T19:53:47.406Z,3.07
2018-12-04T19:56:21.733Z,4.10
2018-12-04T19:58:55.959Z,2.97
2018-12-04T20:01:30.351Z,3.27
2018-12-04T20:04:04.746Z,4.77
2018-12-04T20:06:39.143Z,4.30
2018-12-04T20:09:14.060Z,4.67
2018-12-04T20:11:49.364Z,8.30
2018-12-04T20:14:23.501Z,5.53
2018-12-04T20:16:57.550Z,4.13
2018-12-04T20:19:31.754Z,4.17
2018-12-04T20:22:06.760Z,3.70
2018-12-04T20:24:40.838Z,4.03
2018-12-04T20:27:15.034Z,4.80
2018-12-04T20:29:49.236Z,3.57
2018-12-04T20:32:23.759Z,4.20
2018-12-04T20:34:58.313Z,3.20
2018-12-04T20:37:32.844Z,3.20
2018-12-04T20:40:07.257Z,2.63
2018-12-04T20:42:41.466Z,2.90
2018-12-04T20:45:15.606Z,3.73
2018-12-04T20:47:50.185Z,3.53
2018-12-04T20:50:24.255Z,3.40
2018-12-04T20:52:58.905Z,4.30
2018-12-04T20:55:33.329Z,3.80
2018-12-04T20:58:08.416Z,3.97
2018-12-04T21:00:42.644Z,3.40
2018-12-04T21:03:16.823Z,3.10
2018-12-04T21:05:51.150Z,3.93
2018-12-04T21:08:25.433Z,4.20
2018-12-04T21:10:59.504Z,3.63
2018-12-04T21:13:33.521Z,3.73
2018-12-04T21:16:07.556Z,4.23
2018-12-04T21:18:41.580Z,4.60
2018-12-04T21:21:16.549Z,3.87
2018-12-04T21:23:50.639Z,4.00
2018-12-04T21:26:24.595Z,3.67
2018-12-04T21:29:04.116Z,3.10
2018-12-04T21:31:43.400Z,3.60
2018-12-04T21:34:22.652Z,4.20
2018-12-04T21:37:02.086Z,5.10
2018-12-04T21:39:36.049Z,4.67
2018-12-04T21:42:15.641Z,3.80
2018-12-04T21:44:54.956Z,4.77
2018-12-04T21:47:34.268Z,4.13
2018-12-04T21:50:08.683Z,2.87
2018-12-04T21:52:42.759Z,3.70
2018-12-04T21:55:16.767Z,3.07
2018-12-04T21:57:50.813Z,4.20
2018-12-04T22:00:25.031Z,2.50
2018-12-04T22:02:59.153Z,3.07
2018-12-04T22:05:34.046Z,3.30
2018-12-04T22:08:08.312Z,3.10
2018-12-04T22:10:42.262Z,3.20
2018-12-04T22:13:16.276Z,2.73
2018-12-04T22:15:50.464Z,3.00
2018-12-04T22:18:24.565Z,2.97
2018-12-04T22:20:58.744Z,2.53
2018-12-04T22:23:33.054Z,3.50
2018-12-04T22:26:07.103Z,3.37
2018-12-04T22:28:41.231Z,3.17
2018-12-04T22:31:15.251Z,3.13
2018-12-04T22:33:49.178Z,4.90
2018-12-04T22:36:23.163Z,3.13
2018-12-04T22:38:57.409Z,4.37
2018-12-04T22:41:31.437Z,3.83
2018-12-04T22:44:05.390Z,3.00
2018-12-04T22:46:39.373Z,4.03
2018-12-04T22:49:13.576Z,3.90
2018-12-04T22:51:47.756Z,3.40
2018-12-04T22:54:21.700Z,4.20
2018-12-04T22:56:55.572Z,3.83
2018-12-04T22:59:29.872Z,4.23
2018-12-04T23:02:03.875Z,3.80
2018-12-04T23:04:38.061Z,3.37
2018-12-04T23:07:11.946Z,4.00
2018-12-04T23:09:45.803Z,3.40
2018-12-04T23:12:20.530Z,3.53
2018-12-04T23:14:54.483Z,3.47
2018-12-04T23:17:28.598Z,4.53
2018-12-04T23:20:02.588Z,3.00
2018-12-04T23:22:36.503Z,3.83
2018-12-04T23:25:10.597Z,2.90
2018-12-04T23:27:44.637Z,2.93
2018-12-04T23:30:18.831Z,3.30
2018-12-04T23:32:52.878Z,2.60
2018-12-04T23:35:27.053Z,4.40
2018-12-04T23:38:00.895Z,2.70
2018-12-04T23:40:34.938Z,3.13
2018-12-04T23:43:08.788Z,3.90
2018-12-04T23:45:42.785Z,4.17
2018-12-04T23:48:16.796Z,3.73
2018-12-04T23:50:50.848Z,3.10
2018-12-04T23:53:24.911Z,4.47
2018-12-04T23:55:58.968Z,3.90
2018-12-04T23:58:32.872Z,2.80
